sensor_id;sensor_type;location;lat;lon;timestamp;P1;durP1;ratioP1;P2;durP2;ratioP2
20431;SDS011;10375;49.136;10.366;2023-02-18T00:00:29;5.18;;;3.70;;
20431;SDS011;10375;49.136;10.366;2023-02-18T00:02:57;3.83;;;3.10;;
20431;SDS011;10375;49.136;10.366;2023-02-18T00:05:40;5.40;;;3.40;;
20431;SDS011;10375;49.136;10.366;2023-02-18T00:08:08;5.53;;;3.45;;
20431;SDS011;10375;49.136;10.366;2023-02-18T00:10:39;5.03;;;3.45;;
20431;SDS011;10375;49.136;10.366;2023-02-18T00:13:08;3.40;;;3.08;;
20431;SDS011;10375;49.136;10.366;2023-02-18T00:15:36;4.65;;;4.03;;
20431;SDS011;10375;49.136;10.366;2023-02-18T00:18:05;4.93;;;3.83;;
20431;SDS011;10375;49.136;10.366;2023-02-18T00:20:43;5.90;;;3.13;;
20431;SDS011;10375;49.136;10.366;2023-02-18T00:25:43;3.55;;;3.25;;
20431;SDS011;10375;49.136;10.366;2023-02-18T00:28:11;4.20;;;3.47;;
20431;SDS011;10375;49.136;10.366;2023-02-18T00:30:52;4.75;;;3.78;;
20431;SDS011;10375;49.136;10.366;2023-02-18T00:33:21;3.25;;;2.95;;
20431;SDS011;10375;49.136;10.366;2023-02-18T00:35:49;4.78;;;3.30;;
20431;SDS011;10375;49.136;10.366;2023-02-18T00:38:17;4.60;;;3.00;;
20431;SDS011;10375;49.136;10.366;2023-02-18T00:40:46;4.60;;;4.10;;
20431;SDS011;10375;49.136;10.366;2023-02-18T00:43:14;3.88;;;3.38;;
20431;SDS011;10375;49.136;10.366;2023-02-18T00:45:41;6.32;;;3.22;;
20431;SDS011;10375;49.136;10.366;2023-02-18T00:48:09;5.07;;;3.30;;
20431;SDS011;10375;49.136;10.366;2023-02-18T00:50:36;4.85;;;3.50;;
20431;SDS011;10375;49.136;10.366;2023-02-18T00:53:04;6.25;;;3.25;;
20431;SDS011;10375;49.136;10.366;2023-02-18T00:58:09;4.95;;;3.72;;
20431;SDS011;10375;49.136;10.366;2023-02-18T01:00:47;3.75;;;3.45;;
20431;SDS011;10375;49.136;10.366;2023-02-18T01:03:16;4.82;;;3.70;;
20431;SDS011;10375;49.136;10.366;2023-02-18T01:05:47;4.55;;;3.97;;
20431;SDS011;10375;49.136;10.366;2023-02-18T01:08:16;4.45;;;3.75;;
20431;SDS011;10375;49.136;10.366;2023-02-18T01:10:47;9.98;;;4.00;;
20431;SDS011;10375;49.136;10.366;2023-02-18T01:13:16;4.13;;;3.38;;
20431;SDS011;10375;49.136;10.366;2023-02-18T01:15:45;3.78;;;3.35;;
20431;SDS011;10375;49.136;10.366;2023-02-18T01:18:13;4.50;;;3.58;;
20431;SDS011;10375;49.136;10.366;2023-02-18T01:20:42;4.00;;;3.50;;
20431;SDS011;10375;49.136;10.366;2023-02-18T01:23:18;5.53;;;3.67;;
20431;SDS011;10375;49.136;10.366;2023-02-18T01:25:46;6.22;;;3.90;;
20431;SDS011;10375;49.136;10.366;2023-02-18T01:28:17;7.22;;;3.85;;
20431;SDS011;10375;49.136;10.366;2023-02-18T01:30:44;5.45;;;4.13;;
20431;SDS011;10375;49.136;10.366;2023-02-18T01:33:11;4.97;;;4.15;;
20431;SDS011;10375;49.136;10.366;2023-02-18T01:35:39;6.22;;;4.22;;
20431;SDS011;10375;49.136;10.366;2023-02-18T01:38:07;7.65;;;4.07;;
20431;SDS011;10375;49.136;10.366;2023-02-18T01:40:47;4.10;;;3.65;;
20431;SDS011;10375;49.136;10.366;2023-02-18T01:43:21;5.07;;;3.70;;
20431;SDS011;10375;49.136;10.366;2023-02-18T01:48:34;4.95;;;3.90;;
20431;SDS011;10375;49.136;10.366;2023-02-18T01:56:33;5.45;;;4.40;;
20431;SDS011;10375;49.136;10.366;2023-02-18T01:59:19;4.32;;;3.53;;
20431;SDS011;10375;49.136;10.366;2023-02-18T02:01:51;6.13;;;4.30;;
20431;SDS011;10375;49.136;10.366;2023-02-18T02:04:19;4.00;;;3.67;;
20431;SDS011;10375;49.136;10.366;2023-02-18T02:06:46;7.72;;;3.72;;
20431;SDS011;10375;49.136;10.366;2023-02-18T02:09:15;7.68;;;4.45;;
20431;SDS011;10375;49.136;10.366;2023-02-18T02:17:31;4.50;;;3.88;;
20431;SDS011;10375;49.136;10.366;2023-02-18T02:28:42;4.30;;;3.90;;
20431;SDS011;10375;49.136;10.366;2023-02-18T02:40:14;4.70;;;3.95;;
20431;SDS011;10375;49.136;10.366;2023-02-18T02:42:54;5.07;;;3.88;;
20431;SDS011;10375;49.136;10.366;2023-02-18T02:48:36;7.03;;;3.97;;
20431;SDS011;10375;49.136;10.366;2023-02-18T02:53:41;6.13;;;4.65;;
20431;SDS011;10375;49.136;10.366;2023-02-18T02:56:12;5.18;;;4.13;;
20431;SDS011;10375;49.136;10.366;2023-02-18T02:58:46;5.05;;;4.55;;
20431;SDS011;10375;49.136;10.366;2023-02-18T03:12:48;4.13;;;3.72;;
20431;SDS011;10375;49.136;10.366;2023-02-18T03:15:22;4.63;;;4.13;;
20431;SDS011;10375;49.136;10.366;2023-02-18T03:18:22;4.57;;;4.10;;
20431;SDS011;10375;49.136;10.366;2023-02-18T03:20:55;7.65;;;4.35;;
20431;SDS011;10375;49.136;10.366;2023-02-18T03:23:47;5.95;;;4.32;;
20431;SDS011;10375;49.136;10.366;2023-02-18T03:26:18;6.03;;;4.78;;
20431;SDS011;10375;49.136;10.366;2023-02-18T03:28:51;15.38;;;4.20;;
20431;SDS011;10375;49.136;10.366;2023-02-18T03:31:24;7.03;;;4.60;;
20431;SDS011;10375;49.136;10.366;2023-02-18T03:34:01;4.18;;;3.72;;
20431;SDS011;10375;49.136;10.366;2023-02-18T03:36:35;7.28;;;4.20;;
20431;SDS011;10375;49.136;10.366;2023-02-18T03:39:06;6.50;;;4.10;;
20431;SDS011;10375;49.136;10.366;2023-02-18T03:41:43;4.38;;;3.97;;
20431;SDS011;10375;49.136;10.366;2023-02-18T03:44:11;5.38;;;4.53;;
20431;SDS011;10375;49.136;10.366;2023-02-18T03:46:40;4.43;;;4.03;;
20431;SDS011;10375;49.136;10.366;2023-02-18T03:49:11;5.90;;;4.47;;
20431;SDS011;10375;49.136;10.366;2023-02-18T03:51:40;7.72;;;4.80;;
20431;SDS011;10375;49.136;10.366;2023-02-18T03:54:08;7.20;;;4.82;;
20431;SDS011;10375;49.136;10.366;2023-02-18T03:56:36;6.45;;;4.72;;
20431;SDS011;10375;49.136;10.366;2023-02-18T03:59:03;6.35;;;4.70;;
20431;SDS011;10375;49.136;10.366;2023-02-18T04:01:31;5.68;;;4.88;;
20431;SDS011;10375;49.136;10.366;2023-02-18T04:03:58;5.72;;;5.03;;
20431;SDS011;10375;49.136;10.366;2023-02-18T04:06:25;6.07;;;4.70;;
20431;SDS011;10375;49.136;10.366;2023-02-18T04:08:52;5.55;;;4.90;;
20431;SDS011;10375;49.136;10.366;2023-02-18T04:11:20;5.75;;;4.03;;
20431;SDS011;10375;49.136;10.366;2023-02-18T04:13:47;6.93;;;4.72;;
20431;SDS011;10375;49.136;10.366;2023-02-18T04:16:13;6.50;;;5.20;;
20431;SDS011;10375;49.136;10.366;2023-02-18T04:18:41;10.05;;;5.10;;
20431;SDS011;10375;49.136;10.366;2023-02-18T04:21:08;8.20;;;5.15;;
20431;SDS011;10375;49.136;10.366;2023-02-18T04:23:35;6.55;;;5.03;;
20431;SDS011;10375;49.136;10.366;2023-02-18T04:26:02;8.23;;;5.68;;
20431;SDS011;10375;49.136;10.366;2023-02-18T04:28:29;5.68;;;4.78;;
20431;SDS011;10375;49.136;10.366;2023-02-18T04:30:56;6.15;;;4.78;;
20431;SDS011;10375;49.136;10.366;2023-02-18T04:33:23;8.40;;;5.20;;
20431;SDS011;10375;49.136;10.366;2023-02-18T04:35:50;5.88;;;4.60;;
20431;SDS011;10375;49.136;10.366;2023-02-18T04:38:18;11.15;;;5.30;;
20431;SDS011;10375;49.136;10.366;2023-02-18T04:40:45;8.90;;;5.70;;
20431;SDS011;10375;49.136;10.366;2023-02-18T04:43:13;6.55;;;5.00;;
20431;SDS011;10375;49.136;10.366;2023-02-18T04:45:40;5.57;;;4.60;;
20431;SDS011;10375;49.136;10.366;2023-02-18T04:48:07;9.00;;;5.30;;
20431;SDS011;10375;49.136;10.366;2023-02-18T04:50:34;5.63;;;5.03;;
20431;SDS011;10375;49.136;10.366;2023-02-18T04:53:01;7.20;;;4.90;;
20431;SDS011;10375;49.136;10.366;2023-02-18T04:55:29;13.38;;;5.35;;
20431;SDS011;10375;49.136;10.366;2023-02-18T04:57:57;9.35;;;5.13;;
20431;SDS011;10375;49.136;10.366;2023-02-18T05:00:24;7.78;;;4.70;;
20431;SDS011;10375;49.136;10.366;2023-02-18T05:02:54;5.43;;;4.43;;
20431;SDS011;10375;49.136;10.366;2023-02-18T05:05:21;6.15;;;4.60;;
20431;SDS011;10375;49.136;10.366;2023-02-18T05:07:48;14.05;;;4.75;;
20431;SDS011;10375;49.136;10.366;2023-02-18T05:10:16;5.60;;;4.28;;
20431;SDS011;10375;49.136;10.366;2023-02-18T05:12:45;6.95;;;4.40;;
20431;SDS011;10375;49.136;10.366;2023-02-18T05:15:12;6.20;;;4.18;;
20431;SDS011;10375;49.136;10.366;2023-02-18T05:17:39;4.93;;;4.22;;
20431;SDS011;10375;49.136;10.366;2023-02-18T05:20:07;6.22;;;4.47;;
20431;SDS011;10375;49.136;10.366;2023-02-18T05:22:35;13.25;;;4.40;;
20431;SDS011;10375;49.136;10.366;2023-02-18T05:25:03;10.77;;;4.30;;
20431;SDS011;10375;49.136;10.366;2023-02-18T05:27:32;5.18;;;4.03;;
20431;SDS011;10375;49.136;10.366;2023-02-18T05:29:59;7.75;;;4.47;;
20431;SDS011;10375;49.136;10.366;2023-02-18T05:32:26;7.57;;;3.42;;
20431;SDS011;10375;49.136;10.366;2023-02-18T05:34:53;7.05;;;4.22;;
20431;SDS011;10375;49.136;10.366;2023-02-18T05:37:21;3.97;;;3.25;;
20431;SDS011;10375;49.136;10.366;2023-02-18T05:39:48;5.72;;;3.78;;
20431;SDS011;10375;49.136;10.366;2023-02-18T05:42:15;7.55;;;4.35;;
20431;SDS011;10375;49.136;10.366;2023-02-18T05:44:42;6.78;;;4.10;;
20431;SDS011;10375;49.136;10.366;2023-02-18T05:47:11;5.88;;;4.10;;
20431;SDS011;10375;49.136;10.366;2023-02-18T05:49:39;4.22;;;3.72;;
20431;SDS011;10375;49.136;10.366;2023-02-18T05:52:07;6.43;;;4.05;;
20431;SDS011;10375;49.136;10.366;2023-02-18T05:54:35;5.15;;;4.05;;
20431;SDS011;10375;49.136;10.366;2023-02-18T05:57:03;4.70;;;4.05;;
20431;SDS011;10375;49.136;10.366;2023-02-18T05:59:31;4.78;;;4.20;;
20431;SDS011;10375;49.136;10.366;2023-02-18T06:01:58;8.00;;;3.85;;
20431;SDS011;10375;49.136;10.366;2023-02-18T06:04:25;5.93;;;4.13;;
20431;SDS011;10375;49.136;10.366;2023-02-18T06:06:52;5.40;;;4.55;;
20431;SDS011;10375;49.136;10.366;2023-02-18T06:09:20;8.40;;;5.18;;
20431;SDS011;10375;49.136;10.366;2023-02-18T06:11:47;5.65;;;4.18;;
20431;SDS011;10375;49.136;10.366;2023-02-18T06:14:14;5.68;;;3.78;;
20431;SDS011;10375;49.136;10.366;2023-02-18T06:16:42;8.60;;;3.95;;
20431;SDS011;10375;49.136;10.366;2023-02-18T06:19:09;5.57;;;4.25;;
20431;SDS011;10375;49.136;10.366;2023-02-18T06:21:36;6.90;;;3.90;;
20431;SDS011;10375;49.136;10.366;2023-02-18T06:24:03;4.80;;;3.85;;
20431;SDS011;10375;49.136;10.366;2023-02-18T06:26:30;8.05;;;4.22;;
20431;SDS011;10375;49.136;10.366;2023-02-18T06:28:58;7.45;;;4.35;;
20431;SDS011;10375;49.136;10.366;2023-02-18T06:31:25;6.20;;;4.30;;
20431;SDS011;10375;49.136;10.366;2023-02-18T06:33:54;23.40;;;6.72;;
20431;SDS011;10375;49.136;10.366;2023-02-18T06:36:20;6.68;;;4.15;;
20431;SDS011;10375;49.136;10.366;2023-02-18T06:38:48;5.53;;;4.22;;
20431;SDS011;10375;49.136;10.366;2023-02-18T06:41:15;8.60;;;4.38;;
20431;SDS011;10375;49.136;10.366;2023-02-18T06:43:42;6.45;;;4.18;;
20431;SDS011;10375;49.136;10.366;2023-02-18T06:46:09;6.00;;;3.90;;
20431;SDS011;10375;49.136;10.366;2023-02-18T06:48:36;4.90;;;3.72;;
20431;SDS011;10375;49.136;10.366;2023-02-18T06:51:04;3.92;;;3.50;;
20431;SDS011;10375;49.136;10.366;2023-02-18T06:53:31;6.68;;;4.88;;
20431;SDS011;10375;49.136;10.366;2023-02-18T06:55:58;4.38;;;3.90;;
20431;SDS011;10375;49.136;10.366;2023-02-18T06:58:25;9.25;;;3.70;;
20431;SDS011;10375;49.136;10.366;2023-02-18T07:00:53;6.65;;;3.63;;
20431;SDS011;10375;49.136;10.366;2023-02-18T07:03:20;3.80;;;3.38;;
20431;SDS011;10375;49.136;10.366;2023-02-18T07:05:53;3.78;;;3.20;;
20431;SDS011;10375;49.136;10.366;2023-02-18T07:08:20;3.92;;;3.05;;
20431;SDS011;10375;49.136;10.366;2023-02-18T07:10:47;5.85;;;2.88;;
20431;SDS011;10375;49.136;10.366;2023-02-18T07:13:14;3.97;;;3.33;;
20431;SDS011;10375;49.136;10.366;2023-02-18T07:15:42;4.40;;;3.15;;
20431;SDS011;10375;49.136;10.366;2023-02-18T07:18:09;5.50;;;3.60;;
20431;SDS011;10375;49.136;10.366;2023-02-18T07:20:36;4.90;;;3.60;;
20431;SDS011;10375;49.136;10.366;2023-02-18T07:23:03;3.00;;;2.70;;
20431;SDS011;10375;49.136;10.366;2023-02-18T07:25:32;4.05;;;3.00;;
20431;SDS011;10375;49.136;10.366;2023-02-18T07:27:59;3.88;;;3.15;;
20431;SDS011;10375;49.136;10.366;2023-02-18T07:30:26;5.43;;;3.10;;
20431;SDS011;10375;49.136;10.366;2023-02-18T07:32:53;3.10;;;2.80;;
20431;SDS011;10375;49.136;10.366;2023-02-18T07:35:20;3.13;;;2.80;;
20431;SDS011;10375;49.136;10.366;2023-02-18T07:37:48;6.18;;;2.72;;
20431;SDS011;10375;49.136;10.366;2023-02-18T07:40:17;3.08;;;2.70;;
20431;SDS011;10375;49.136;10.366;2023-02-18T07:42:46;2.70;;;2.17;;
20431;SDS011;10375;49.136;10.366;2023-02-18T07:45:14;3.85;;;2.53;;
20431;SDS011;10375;49.136;10.366;2023-02-18T07:47:41;9.82;;;3.08;;
20431;SDS011;10375;49.136;10.366;2023-02-18T07:50:10;3.85;;;2.50;;
20431;SDS011;10375;49.136;10.366;2023-02-18T07:52:39;2.35;;;2.15;;
20431;SDS011;10375;49.136;10.366;2023-02-18T07:55:06;3.25;;;2.72;;
20431;SDS011;10375;49.136;10.366;2023-02-18T07:57:34;2.70;;;2.42;;
20431;SDS011;10375;49.136;10.366;2023-02-18T08:00:21;2.70;;;2.50;;
20431;SDS011;10375;49.136;10.366;2023-02-18T08:02:49;3.70;;;2.97;;
20431;SDS011;10375;49.136;10.366;2023-02-18T08:05:16;2.90;;;2.47;;
20431;SDS011;10375;49.136;10.366;2023-02-18T08:07:43;3.00;;;2.33;;
20431;SDS011;10375;49.136;10.366;2023-02-18T08:10:10;2.63;;;2.00;;
20431;SDS011;10375;49.136;10.366;2023-02-18T08:12:39;2.63;;;2.38;;
20431;SDS011;10375;49.136;10.366;2023-02-18T08:15:06;2.95;;;2.10;;
20431;SDS011;10375;49.136;10.366;2023-02-18T08:17:34;3.00;;;2.38;;
20431;SDS011;10375;49.136;10.366;2023-02-18T08:20:01;2.60;;;2.20;;
20431;SDS011;10375;49.136;10.366;2023-02-18T08:22:28;2.35;;;2.03;;
20431;SDS011;10375;49.136;10.366;2023-02-18T08:24:57;4.20;;;2.38;;
20431;SDS011;10375;49.136;10.366;2023-02-18T08:27:24;4.43;;;3.33;;
20431;SDS011;10375;49.136;10.366;2023-02-18T08:29:51;2.28;;;2.08;;
20431;SDS011;10375;49.136;10.366;2023-02-18T08:32:18;2.53;;;2.08;;
20431;SDS011;10375;49.136;10.366;2023-02-18T08:34:45;3.72;;;2.20;;
20431;SDS011;10375;49.136;10.366;2023-02-18T08:37:13;3.30;;;2.60;;
20431;SDS011;10375;49.136;10.366;2023-02-18T08:39:40;5.68;;;2.22;;
20431;SDS011;10375;49.136;10.366;2023-02-18T08:42:08;4.38;;;1.90;;
20431;SDS011;10375;49.136;10.366;2023-02-18T08:44:35;2.38;;;2.17;;
20431;SDS011;10375;49.136;10.366;2023-02-18T08:47:03;3.28;;;2.40;;
20431;SDS011;10375;49.136;10.366;2023-02-18T08:49:53;3.13;;;2.10;;
20431;SDS011;10375;49.136;10.366;2023-02-18T08:52:21;3.40;;;2.20;;
20431;SDS011;10375;49.136;10.366;2023-02-18T08:54:48;2.90;;;2.13;;
20431;SDS011;10375;49.136;10.366;2023-02-18T08:57:15;3.95;;;2.00;;
20431;SDS011;10375;49.136;10.366;2023-02-18T08:59:46;3.72;;;2.28;;
20431;SDS011;10375;49.136;10.366;2023-02-18T09:02:14;5.00;;;2.65;;
20431;SDS011;10375;49.136;10.366;2023-02-18T09:04:41;2.65;;;2.42;;
20431;SDS011;10375;49.136;10.366;2023-02-18T09:07:08;2.50;;;2.10;;
20431;SDS011;10375;49.136;10.366;2023-02-18T09:09:35;7.22;;;2.58;;
20431;SDS011;10375;49.136;10.366;2023-02-18T09:12:02;2.95;;;2.63;;
20431;SDS011;10375;49.136;10.366;2023-02-18T09:14:30;5.47;;;4.35;;
20431;SDS011;10375;49.136;10.366;2023-02-18T09:16:57;4.43;;;3.30;;
20431;SDS011;10375;49.136;10.366;2023-02-18T09:19:24;7.30;;;4.80;;
20431;SDS011;10375;49.136;10.366;2023-02-18T09:21:51;16.02;;;8.80;;
20431;SDS011;10375;49.136;10.366;2023-02-18T09:24:19;6.47;;;3.83;;
20431;SDS011;10375;49.136;10.366;2023-02-18T09:26:46;4.50;;;3.20;;
20431;SDS011;10375;49.136;10.366;2023-02-18T09:29:14;2.28;;;2.05;;
20431;SDS011;10375;49.136;10.366;2023-02-18T09:34:29;2.92;;;2.38;;
20431;SDS011;10375;49.136;10.366;2023-02-18T09:36:57;2.28;;;1.88;;
20431;SDS011;10375;49.136;10.366;2023-02-18T09:39:24;3.20;;;2.13;;
20431;SDS011;10375;49.136;10.366;2023-02-18T09:41:56;2.22;;;1.90;;
20431;SDS011;10375;49.136;10.366;2023-02-18T09:44:34;2.88;;;2.40;;
20431;SDS011;10375;49.136;10.366;2023-02-18T09:47:06;2.65;;;2.08;;
20431;SDS011;10375;49.136;10.366;2023-02-18T09:49:40;4.07;;;2.67;;
20431;SDS011;10375;49.136;10.366;2023-02-18T09:52:13;5.32;;;2.20;;
20431;SDS011;10375;49.136;10.366;2023-02-18T09:54:44;3.55;;;2.75;;
20431;SDS011;10375;49.136;10.366;2023-02-18T09:57:15;2.55;;;2.33;;
20431;SDS011;10375;49.136;10.366;2023-02-18T09:59:51;2.67;;;2.47;;
20431;SDS011;10375;49.136;10.366;2023-02-18T10:02:27;3.60;;;2.47;;
20431;SDS011;10375;49.136;10.366;2023-02-18T10:04:55;2.70;;;2.40;;
20431;SDS011;10375;49.136;10.366;2023-02-18T10:07:27;4.40;;;2.80;;
20431;SDS011;10375;49.136;10.366;2023-02-18T10:09:58;3.05;;;2.45;;
20431;SDS011;10375;49.136;10.366;2023-02-18T10:12:33;9.75;;;2.78;;
20431;SDS011;10375;49.136;10.366;2023-02-18T10:15:01;2.47;;;2.25;;
20431;SDS011;10375;49.136;10.366;2023-02-18T10:17:29;2.80;;;2.42;;
20431;SDS011;10375;49.136;10.366;2023-02-18T10:19:58;4.13;;;2.65;;
20431;SDS011;10375;49.136;10.366;2023-02-18T10:22:28;4.53;;;2.88;;
20431;SDS011;10375;49.136;10.366;2023-02-18T10:24:57;3.13;;;2.50;;
20431;SDS011;10375;49.136;10.366;2023-02-18T10:27:27;2.97;;;2.63;;
20431;SDS011;10375;49.136;10.366;2023-02-18T10:33:10;4.28;;;2.90;;
20431;SDS011;10375;49.136;10.366;2023-02-18T10:36:16;2.63;;;2.15;;
20431;SDS011;10375;49.136;10.366;2023-02-18T10:41:47;3.22;;;2.40;;
20431;SDS011;10375;49.136;10.366;2023-02-18T10:52:24;4.28;;;2.72;;
20431;SDS011;10375;49.136;10.366;2023-02-18T10:57:32;3.30;;;1.90;;
20431;SDS011;10375;49.136;10.366;2023-02-18T11:00:16;3.00;;;1.83;;
20431;SDS011;10375;49.136;10.366;2023-02-18T11:02:45;4.55;;;2.17;;
20431;SDS011;10375;49.136;10.366;2023-02-18T11:05:27;4.05;;;1.88;;
20431;SDS011;10375;49.136;10.366;2023-02-18T11:07:55;2.10;;;1.90;;
20431;SDS011;10375;49.136;10.366;2023-02-18T11:10:30;3.67;;;1.92;;
20431;SDS011;10375;49.136;10.366;2023-02-18T11:13:00;1.40;;;1.30;;
20431;SDS011;10375;49.136;10.366;2023-02-18T11:15:30;4.63;;;2.42;;
20431;SDS011;10375;49.136;10.366;2023-02-18T11:17:58;2.00;;;1.40;;
20431;SDS011;10375;49.136;10.366;2023-02-18T11:20:39;3.40;;;1.88;;
20431;SDS011;10375;49.136;10.366;2023-02-18T11:25:34;4.95;;;1.58;;
20431;SDS011;10375;49.136;10.366;2023-02-18T11:30:54;1.80;;;1.63;;
20431;SDS011;10375;49.136;10.366;2023-02-18T11:33:33;2.97;;;1.90;;
20431;SDS011;10375;49.136;10.366;2023-02-18T11:36:22;1.98;;;1.65;;
20431;SDS011;10375;49.136;10.366;2023-02-18T11:44:02;1.73;;;1.40;;
20431;SDS011;10375;49.136;10.366;2023-02-18T11:46:40;1.90;;;1.73;;
20431;SDS011;10375;49.136;10.366;2023-02-18T11:49:42;2.22;;;1.52;;
20431;SDS011;10375;49.136;10.366;2023-02-18T11:52:24;1.77;;;1.42;;
20431;SDS011;10375;49.136;10.366;2023-02-18T11:57:33;10.02;;;1.90;;
20431;SDS011;10375;49.136;10.366;2023-02-18T12:02:55;3.67;;;1.58;;
20431;SDS011;10375;49.136;10.366;2023-02-18T12:05:25;2.13;;;1.60;;
20431;SDS011;10375;49.136;10.366;2023-02-18T12:07:58;4.88;;;1.80;;
20431;SDS011;10375;49.136;10.366;2023-02-18T12:10:34;2.20;;;1.60;;
20431;SDS011;10375;49.136;10.366;2023-02-18T12:13:21;8.10;;;2.33;;
20431;SDS011;10375;49.136;10.366;2023-02-18T12:22:10;2.53;;;1.92;;
20431;SDS011;10375;49.136;10.366;2023-02-18T12:45:02;4.90;;;1.98;;
20431;SDS011;10375;49.136;10.366;2023-02-18T12:47:57;2.67;;;2.10;;
20431;SDS011;10375;49.136;10.366;2023-02-18T12:50:47;3.58;;;2.05;;
20431;SDS011;10375;49.136;10.366;2023-02-18T12:53:43;2.92;;;2.47;;
20431;SDS011;10375;49.136;10.366;2023-02-18T13:04:11;6.28;;;3.53;;
20431;SDS011;10375;49.136;10.366;2023-02-18T13:09:59;7.35;;;2.90;;
20431;SDS011;10375;49.136;10.366;2023-02-18T13:15:16;4.85;;;2.90;;
20431;SDS011;10375;49.136;10.366;2023-02-18T13:17:50;8.48;;;2.60;;
20431;SDS011;10375;49.136;10.366;2023-02-18T13:20:24;5.22;;;2.67;;
20431;SDS011;10375;49.136;10.366;2023-02-18T13:23:05;5.70;;;2.92;;
20431;SDS011;10375;49.136;10.366;2023-02-18T13:25:36;3.40;;;2.60;;
20431;SDS011;10375;49.136;10.366;2023-02-18T13:28:14;3.42;;;2.40;;
20431;SDS011;10375;49.136;10.366;2023-02-18T13:30:57;3.78;;;2.67;;
20431;SDS011;10375;49.136;10.366;2023-02-18T13:39:18;3.65;;;2.55;;
20431;SDS011;10375;49.136;10.366;2023-02-18T13:41:48;5.10;;;2.80;;
20431;SDS011;10375;49.136;10.366;2023-02-18T13:46:48;4.82;;;2.90;;
20431;SDS011;10375;49.136;10.366;2023-02-18T13:49:22;2.80;;;2.38;;
20431;SDS011;10375;49.136;10.366;2023-02-18T13:51:52;2.50;;;2.30;;
20431;SDS011;10375;49.136;10.366;2023-02-18T13:54:44;3.88;;;2.95;;
20431;SDS011;10375;49.136;10.366;2023-02-18T13:57:15;3.03;;;2.40;;
20431;SDS011;10375;49.136;10.366;2023-02-18T13:59:49;3.53;;;2.83;;
20431;SDS011;10375;49.136;10.366;2023-02-18T14:02:38;4.30;;;2.65;;
20431;SDS011;10375;49.136;10.366;2023-02-18T14:05:24;2.63;;;2.42;;
20431;SDS011;10375;49.136;10.366;2023-02-18T14:08:13;4.15;;;2.47;;
20431;SDS011;10375;49.136;10.366;2023-02-18T14:11:40;3.63;;;2.50;;
20431;SDS011;10375;49.136;10.366;2023-02-18T14:22:33;2.67;;;2.45;;
20431;SDS011;10375;49.136;10.366;2023-02-18T14:27:52;5.05;;;2.88;;
20431;SDS011;10375;49.136;10.366;2023-02-18T14:30:28;4.38;;;2.33;;
20431;SDS011;10375;49.136;10.366;2023-02-18T14:33:03;3.15;;;2.38;;
20431;SDS011;10375;49.136;10.366;2023-02-18T14:35:34;2.53;;;2.13;;
20431;SDS011;10375;49.136;10.366;2023-02-18T14:47:25;3.83;;;2.80;;
20431;SDS011;10375;49.136;10.366;2023-02-18T14:50:17;5.65;;;2.40;;
20431;SDS011;10375;49.136;10.366;2023-02-18T14:52:46;6.75;;;2.55;;
20431;SDS011;10375;49.136;10.366;2023-02-18T14:55:37;3.13;;;2.30;;
20431;SDS011;10375;49.136;10.366;2023-02-18T15:00:54;3.67;;;2.90;;
20431;SDS011;10375;49.136;10.366;2023-02-18T15:03:21;2.78;;;2.13;;
20431;SDS011;10375;49.136;10.366;2023-02-18T15:05:49;3.47;;;2.80;;
20431;SDS011;10375;49.136;10.366;2023-02-18T15:08:21;3.70;;;2.20;;
20431;SDS011;10375;49.136;10.366;2023-02-18T15:10:57;2.60;;;2.40;;
20431;SDS011;10375;49.136;10.366;2023-02-18T15:13:30;4.20;;;2.60;;
20431;SDS011;10375;49.136;10.366;2023-02-18T15:16:04;3.17;;;2.55;;
20431;SDS011;10375;49.136;10.366;2023-02-18T15:21:01;2.85;;;2.15;;
20431;SDS011;10375;49.136;10.366;2023-02-18T15:23:33;5.43;;;2.15;;
20431;SDS011;10375;49.136;10.366;2023-02-18T15:26:02;5.38;;;3.30;;
20431;SDS011;10375;49.136;10.366;2023-02-18T15:28:32;4.72;;;2.38;;
20431;SDS011;10375;49.136;10.366;2023-02-18T15:31:00;3.00;;;2.15;;
20431;SDS011;10375;49.136;10.366;2023-02-18T15:33:29;2.63;;;2.25;;
20431;SDS011;10375;49.136;10.366;2023-02-18T15:36:00;2.97;;;2.40;;
20431;SDS011;10375;49.136;10.366;2023-02-18T15:38:31;4.75;;;2.58;;
20431;SDS011;10375;49.136;10.366;2023-02-18T15:40:58;8.18;;;2.60;;
20431;SDS011;10375;49.136;10.366;2023-02-18T15:43:26;6.72;;;2.78;;
20431;SDS011;10375;49.136;10.366;2023-02-18T15:45:54;4.20;;;2.85;;
20431;SDS011;10375;49.136;10.366;2023-02-18T15:51:01;3.33;;;2.28;;
20431;SDS011;10375;49.136;10.366;2023-02-18T15:53:42;4.47;;;2.30;;
20431;SDS011;10375;49.136;10.366;2023-02-18T16:04:37;5.85;;;2.70;;
20431;SDS011;10375;49.136;10.366;2023-02-18T16:07:20;6.82;;;2.85;;
20431;SDS011;10375;49.136;10.366;2023-02-18T16:09:49;8.00;;;2.85;;
20431;SDS011;10375;49.136;10.366;2023-02-18T16:14:57;7.15;;;2.65;;
20431;SDS011;10375;49.136;10.366;2023-02-18T16:17:26;15.48;;;3.05;;
20431;SDS011;10375;49.136;10.366;2023-02-18T16:19:59;5.25;;;2.75;;
20431;SDS011;10375;49.136;10.366;2023-02-18T16:28:03;3.22;;;2.60;;
20431;SDS011;10375;49.136;10.366;2023-02-18T16:30:33;9.32;;;2.90;;
20431;SDS011;10375;49.136;10.366;2023-02-18T16:33:01;5.05;;;2.88;;
20431;SDS011;10375;49.136;10.366;2023-02-18T16:35:29;5.13;;;2.60;;
20431;SDS011;10375;49.136;10.366;2023-02-18T16:38:18;6.22;;;2.80;;
20431;SDS011;10375;49.136;10.366;2023-02-18T16:40:47;3.35;;;2.80;;
20431;SDS011;10375;49.136;10.366;2023-02-18T16:43:18;3.70;;;2.50;;
20431;SDS011;10375;49.136;10.366;2023-02-18T16:45:51;3.90;;;2.38;;
20431;SDS011;10375;49.136;10.366;2023-02-18T16:48:29;2.63;;;2.42;;
20431;SDS011;10375;49.136;10.366;2023-02-18T16:51:21;4.25;;;2.38;;
20431;SDS011;10375;49.136;10.366;2023-02-18T16:53:58;3.45;;;2.40;;
20431;SDS011;10375;49.136;10.366;2023-02-18T16:56:28;3.00;;;2.40;;
20431;SDS011;10375;49.136;10.366;2023-02-18T16:58:58;2.85;;;2.47;;
20431;SDS011;10375;49.136;10.366;2023-02-18T17:01:29;3.80;;;2.70;;
20431;SDS011;10375;49.136;10.366;2023-02-18T17:04:08;2.97;;;2.58;;
20431;SDS011;10375;49.136;10.366;2023-02-18T17:06:37;3.58;;;2.55;;
20431;SDS011;10375;49.136;10.366;2023-02-18T17:09:14;4.25;;;2.45;;
20431;SDS011;10375;49.136;10.366;2023-02-18T17:11:51;3.55;;;2.53;;
20431;SDS011;10375;49.136;10.366;2023-02-18T17:14:21;3.65;;;2.75;;
20431;SDS011;10375;49.136;10.366;2023-02-18T17:16:49;3.40;;;2.58;;
20431;SDS011;10375;49.136;10.366;2023-02-18T17:19:18;4.75;;;2.90;;
20431;SDS011;10375;49.136;10.366;2023-02-18T17:21:45;3.60;;;2.42;;
20431;SDS011;10375;49.136;10.366;2023-02-18T17:24:15;5.13;;;2.85;;
20431;SDS011;10375;49.136;10.366;2023-02-18T17:26:43;4.68;;;3.10;;
20431;SDS011;10375;49.136;10.366;2023-02-18T17:29:10;7.00;;;2.85;;
20431;SDS011;10375;49.136;10.366;2023-02-18T17:31:38;2.83;;;2.55;;
20431;SDS011;10375;49.136;10.366;2023-02-18T17:34:13;5.68;;;3.35;;
20431;SDS011;10375;49.136;10.366;2023-02-18T17:36:42;4.63;;;2.80;;
20431;SDS011;10375;49.136;10.366;2023-02-18T17:39:12;5.70;;;2.80;;
20431;SDS011;10375;49.136;10.366;2023-02-18T17:41:41;3.70;;;2.80;;
20431;SDS011;10375;49.136;10.366;2023-02-18T17:44:18;6.95;;;3.00;;
20431;SDS011;10375;49.136;10.366;2023-02-18T17:46:47;4.45;;;2.85;;
20431;SDS011;10375;49.136;10.366;2023-02-18T17:49:18;5.97;;;3.30;;
20431;SDS011;10375;49.136;10.366;2023-02-18T17:51:46;5.00;;;3.17;;
20431;SDS011;10375;49.136;10.366;2023-02-18T17:54:17;3.28;;;2.97;;
20431;SDS011;10375;49.136;10.366;2023-02-18T17:56:45;5.28;;;2.95;;
20431;SDS011;10375;49.136;10.366;2023-02-18T17:59:12;3.63;;;3.28;;